Heydar Aliyev — 9HFS7 — position and weather

sailwx.info

Track history (hours):
 
Tides and Currents Weather Stations Pressure Air Temp Water Temp Dewpoint Dewpoint Depression Visibility Wind Speed Wind Dir Waves Ship Positions

Heydar Aliyev

Last reported at 2015-Mar-25 10:04 UTC. Time now 2015-Mar-30 10:43 UTC.
Position N 02°07' E 102°05'.

Length 274 m; draft 9.3 m.

Type: Tanker. MMSI: 215213000.

Date/timePositionNaut miles runAvg speedWind from/ knotsBaromVisibWave heightAir tempDewpointWater temp
2015-Mar-25 10:04N 02°07' E 102°05'815.6
2015-Mar-25 09:32N 02°01' E 102°11'1515.3
2015-Mar-25 08:33N 01°54' E 102°24'1514.8
2015-Mar-25 07:33N 01°47' E 102°37'71 1.8
2015-Mar-23 15:06N 01°11' E 103°38'3 0.5
2015-Mar-23 08:04N 01°11' E 103°42'0 0.1
2015-Mar-23 07:11N 01°11' E 103°42'3 5.2
2015-Mar-23 06:32N 01°09' E 103°45'4 3.5
2015-Mar-23 05:26N 01°12' E 103°48'0 0.0
2015-Mar-23 04:32N 01°12' E 103°48'0 0.0
2015-Mar-23 03:32N 01°12' E 103°48'0 0.0
2015-Mar-23 02:32N 01°12' E 103°48'0 0.0
2015-Mar-23 01:32N 01°12' E 103°48'0 0.0
2015-Mar-23 00:32N 01°12' E 103°48'0 0.0
2015-Mar-22 23:29N 01°12' E 103°48'0 0.0
2015-Mar-21 04:05N 01°12' E 103°48'1 1.1
2015-Mar-21 03:33N 01°11' E 103°48'6 5.2
2015-Mar-21 02:27N 01°11' E 103°42'0 0.2
2015-Mar-21 01:09N 01°11' E 103°42'0 0.0
2015-Mar-20 15:30N 01°11' E 103°42'0 0.0
2015-Mar-20 14:09N 01°11' E 103°42'0 0.1
2015-Mar-20 10:06N 01°11' E 103°42'0 0.0
2015-Mar-20 09:18N 01°11' E 103°42'0 0.0
2015-Mar-19 22:21N 01°11' E 103°42'0 0.1
2015-Mar-19 19:30N 01°11' E 103°42'0 0.0
2015-Mar-19 14:09N 01°11' E 103°42'0 0.1
2015-Mar-19 12:06N 01°11' E 103°42'0 0.2
2015-Mar-19 10:27N 01°11' E 103°42'0 0.0
2015-Mar-19 09:18N 01°11' E 103°42'0 0.0
2015-Mar-19 07:24N 01°11' E 103°42'0 0.0
2015-Mar-19 06:24N 01°11' E 103°42'0 0.0
2015-Mar-19 03:18N 01°11' E 103°42'0 0.0
2015-Mar-19 02:06N 01°11' E 103°42'0 0.0
2015-Mar-19 01:30N 01°11' E 103°42'0 0.0
2015-Mar-18 14:33N 01°11' E 103°42'0 0.0
2015-Mar-18 09:24N 01°11' E 103°42'0 0.0
2015-Mar-18 06:33N 01°11' E 103°42'0 0.0
2015-Mar-18 04:21N 01°11' E 103°42'2 0.1
2015-Mar-17 15:21N 01°11' E 103°41'3 3.4
2015-Mar-17 14:25N 01°14' E 103°41'0 0.1
2015-Mar-17 13:09N 01°14' E 103°41'0 0.0
2015-Mar-16 10:27N 01°14' E 103°41'83 5.2
2015-Mar-15 18:28N 01°48' E 102°25'  
Track history (hours):
 
Tides and Currents Weather Stations Pressure Air Temp Water Temp Dewpoint Dewpoint Depression Visibility Wind Speed Wind Dir Waves Ship Positions

Heydar Aliyev

Last reported at 2015-Mar-25 10:04 UTC. Time now 2015-Mar-30 10:43 UTC.
Position N 02°07' E 102°05'.

Length 274 m; draft 9.3 m.

Type: Tanker. MMSI: 215213000.

Date/timePositionNaut miles runAvg speedWind from/ knotsBaromVisibWave heightAir tempDewpointWater temp
2015-Mar-25 10:04N 02°07' E 102°05'815.6
2015-Mar-25 09:32N 02°01' E 102°11'1515.3
2015-Mar-25 08:33N 01°54' E 102°24'1514.8
2015-Mar-25 07:33N 01°47' E 102°37'71 1.8
2015-Mar-23 15:06N 01°11' E 103°38'3 0.5
2015-Mar-23 08:04N 01°11' E 103°42'0 0.1
2015-Mar-23 07:11N 01°11' E 103°42'3 5.2
2015-Mar-23 06:32N 01°09' E 103°45'4 3.5
2015-Mar-23 05:26N 01°12' E 103°48'0 0.0
2015-Mar-23 04:32N 01°12' E 103°48'0 0.0
2015-Mar-23 03:32N 01°12' E 103°48'0 0.0
2015-Mar-23 02:32N 01°12' E 103°48'0 0.0
2015-Mar-23 01:32N 01°12' E 103°48'0 0.0
2015-Mar-23 00:32N 01°12' E 103°48'0 0.0
2015-Mar-22 23:29N 01°12' E 103°48'0 0.0
2015-Mar-21 04:05N 01°12' E 103°48'1 1.1
2015-Mar-21 03:33N 01°11' E 103°48'6 5.2
2015-Mar-21 02:27N 01°11' E 103°42'0 0.2
2015-Mar-21 01:09N 01°11' E 103°42'0 0.0
2015-Mar-20 15:30N 01°11' E 103°42'0 0.0
2015-Mar-20 14:09N 01°11' E 103°42'0 0.1
2015-Mar-20 10:06N 01°11' E 103°42'0 0.0
2015-Mar-20 09:18N 01°11' E 103°42'0 0.0
2015-Mar-19 22:21N 01°11' E 103°42'0 0.1
2015-Mar-19 19:30N 01°11' E 103°42'0 0.0
2015-Mar-19 14:09N 01°11' E 103°42'0 0.1
2015-Mar-19 12:06N 01°11' E 103°42'0 0.2
2015-Mar-19 10:27N 01°11' E 103°42'0 0.0
2015-Mar-19 09:18N 01°11' E 103°42'0 0.0
2015-Mar-19 07:24N 01°11' E 103°42'0 0.0
2015-Mar-19 06:24N 01°11' E 103°42'0 0.0
2015-Mar-19 03:18N 01°11' E 103°42'0 0.0
2015-Mar-19 02:06N 01°11' E 103°42'0 0.0
2015-Mar-19 01:30N 01°11' E 103°42'0 0.0
2015-Mar-18 14:33N 01°11' E 103°42'0 0.0
2015-Mar-18 09:24N 01°11' E 103°42'0 0.0
2015-Mar-18 06:33N 01°11' E 103°42'0 0.0
2015-Mar-18 04:21N 01°11' E 103°42'2 0.1
2015-Mar-17 15:21N 01°11' E 103°41'3 3.4
2015-Mar-17 14:25N 01°14' E 103°41'0 0.1
2015-Mar-17 13:09N 01°14' E 103°41'0 0.0
2015-Mar-16 10:27N 01°14' E 103°41'83 5.2
2015-Mar-15 18:28N 01°48' E 102°25'  

Dump ship's entire track history